Airfield :







YOU CAN JOIN US ON...

 
LOGIN :

Register | Disclaimer

   EN    FR    IT 

 









Legend :    VFR   Marginal VFR   IFR   Intensive IFR   Very Intensive IFR
Visi :
Ceiling :
>= 8 km
>= 3000ft
5 to 8 km
1000 to 3000 ft
1500m to 5 km
500 to 1000 ft
800 to 1500m
200 to 500 ft
< 800m
< 200 ft
Symbols :   Thunderstorms  Fog  Heavy snow  Heavy precipitations  Wind > 20 kt







- Airport Elevation : 234 ft
- IATA code : YMN


CYFT - Makkovik

CURRENT METAR :
  • 171800Z 20016G27KT 15SM BKN022 25/14 A2940 RMK CU7 SLP958 DENSITY ALT 2100FT

EXPIRED METARs :
  • 171700Z 17014G24KT 15SM BKN025 25/15 A2941 RMK CU5 SLP961 DENSITY ALT 2000FT
  • 171600Z 15012G23KT 15SM BKN025 OVC080 21/15 A2944 RMK SC6AS2 SLP972 DENSITY ALT 1500FT
  • 171546Z 17014G25KT 15SM BKN025 OVC080 21/14 A2945 RMK SC5AS3 SLP974 DENSITY ALT 1500FT

TAF N/A
CZQX FIR / North America



MET'MAP, your aeronautical weather chart ! - Copyright ORBIFLY December 2007 - Disclaimer

ORBIFLY MET'MAP TEAM :

Programming & Development : Alexandra Zaïnal
Concept & Development : Baudouin d'Aumeries
Co-Development & Prog : Marc-Olivier Méhu
Technical & hardware support : Manuel Goepfert

Contact : metmap@orbifly.com




SOURCES & CREDITS :

   NOAA